Time;durP1;ratioP1;P1;durP2;ratioP2;P2;SDS_P1;SDS_P2;PMS_P1;PMS_P2;Temp;Humidity;BMP_temperature;BMP_pressure;BME280_temperature;BME280_humidity;BME280_pressure;Samples;Min_cycle;Max_cycle;Signal;HPM_P1;HPM_P2
2022/04/23 00:01:55;;;;;;;13.52;11.10;;;13.20;99.90;;;;;;4993185;28;20117;-89
2022/04/23 00:04:21;;;;;;;13.95;9.45;;;13.20;99.90;;;;;;4977109;28;20042;-89
2022/04/23 00:06:46;;;;;;;13.68;9.32;;;13.10;99.80;;;;;;4993032;28;20053;-89
2022/04/23 00:09:12;;;;;;;15.77;9.90;;;13.10;99.80;;;;;;4993564;28;20042;-89
2022/04/23 00:11:37;;;;;;;15.30;12.30;;;13.00;99.90;;;;;;4992856;28;20145;-89
2022/04/23 00:14:04;;;;;;;17.48;9.82;;;13.00;99.90;;;;;;4977139;28;20074;-89
2022/04/23 00:16:30;;;;;;;14.43;10.13;;;13.00;99.90;;;;;;4993416;28;20105;-89
2022/04/23 00:18:58;;;;;;;14.30;9.93;;;12.90;99.90;;;;;;4993295;28;20421;-89
2022/04/23 00:21:24;;;;;;;15.27;10.52;;;12.90;99.90;;;;;;4992340;28;20046;-89
2022/04/23 00:23:50;;;;;;;14.88;9.88;;;12.90;99.90;;;;;;4977155;28;20128;-90
2022/04/23 00:26:15;;;;;;;15.05;12.27;;;12.80;99.90;;;;;;4992259;28;20499;-89
2022/04/23 00:28:41;;;;;;;14.65;12.20;;;12.90;99.90;;;;;;4976570;28;20041;-89
2022/04/23 00:31:07;;;;;;;17.75;11.23;;;12.90;99.90;;;;;;4992495;28;20042;-89
2022/04/23 00:33:37;;;;;;;14.48;10.18;;;12.80;99.90;;;;;;4978906;28;20065;-89
2022/04/23 00:36:04;;;;;;;14.93;12.50;;;12.80;99.90;;;;;;5000748;28;20054;-89
2022/04/23 00:38:30;;;;;;;15.15;10.77;;;12.80;99.90;;;;;;4993878;28;20084;-90
2022/04/23 00:40:55;;;;;;;15.43;10.75;;;12.80;99.90;;;;;;4996216;28;20101;-90
2022/04/23 00:43:26;;;;;;;14.15;9.93;;;12.70;99.90;;;;;;4988285;28;20096;-89
2022/04/23 00:45:52;;;;;;;14.88;10.18;;;12.70;99.90;;;;;;4993332;28;20044;-89
2022/04/23 00:48:18;;;;;;;15.63;13.52;;;12.70;99.90;;;;;;4993816;28;20034;-90
2022/04/23 00:50:43;;;;;;;15.13;11.57;;;12.70;99.90;;;;;;4975826;28;20081;-89
2022/04/23 00:53:09;;;;;;;15.48;11.05;;;12.70;99.90;;;;;;4992431;28;20038;-89
2022/04/23 00:55:36;;;;;;;16.48;11.52;;;12.70;99.90;;;;;;4992496;28;20468;-89
2022/04/23 00:58:02;;;;;;;14.40;10.60;;;12.60;99.90;;;;;;4992445;28;20044;-89
2022/04/23 01:00:28;;;;;;;17.27;11.77;;;12.60;99.90;;;;;;4975926;28;20084;-89
2022/04/23 01:02:54;;;;;;;13.95;9.93;;;12.60;99.90;;;;;;4976025;28;20089;-90
2022/04/23 01:05:23;;;;;;;16.95;11.43;;;12.60;99.90;;;;;;4992091;28;20050;-89
2022/04/23 01:07:51;;;;;;;17.83;11.40;;;12.50;99.90;;;;;;4992020;28;20047;-89
2022/04/23 01:10:17;;;;;;;17.67;11.20;;;12.50;99.90;;;;;;4992002;28;20117;-89
2022/04/23 01:12:45;;;;;;;16.38;11.15;;;12.50;99.90;;;;;;4975485;28;20045;-89
2022/04/23 01:15:13;;;;;;;15.43;11.40;;;12.50;99.90;;;;;;4975846;28;20579;-89
2022/04/23 01:17:39;;;;;;;15.57;11.68;;;12.40;99.90;;;;;;4991882;28;20053;-88
2022/04/23 01:20:07;;;;;;;16.67;11.18;;;12.40;99.90;;;;;;4975649;28;20130;-89
2022/04/23 01:22:35;;;;;;;16.77;12.18;;;12.40;99.90;;;;;;4991988;28;20043;-90
2022/04/23 01:25:04;;;;;;;13.90;10.27;;;12.40;99.90;;;;;;4975741;28;20046;-90
2022/04/23 01:27:30;;;;;;;15.45;10.70;;;12.40;99.90;;;;;;4991094;28;20049;-89
2022/04/23 01:29:56;;;;;;;15.02;10.65;;;12.30;99.90;;;;;;4991616;28;20508;-90
2022/04/23 01:32:22;;;;;;;15.23;11.05;;;12.30;99.90;;;;;;4991712;28;20169;-90
2022/04/23 01:34:49;;;;;;;16.42;11.55;;;12.30;99.90;;;;;;4975277;28;20403;-89
2022/04/23 01:37:15;;;;;;;15.52;11.25;;;12.30;99.90;;;;;;4991799;28;20121;-90
2022/04/23 01:39:40;;;;;;;15.18;11.63;;;12.30;99.90;;;;;;4991869;28;20125;-90
2022/04/23 01:42:06;;;;;;;13.32;10.27;;;12.30;99.90;;;;;;4990998;28;20053;-89
2022/04/23 01:44:31;;;;;;;15.00;11.35;;;12.30;99.90;;;;;;4975624;28;20069;-89
2022/04/23 01:46:57;;;;;;;16.25;13.80;;;12.30;99.90;;;;;;4974830;28;20042;-90
2022/04/23 01:49:23;;;;;;;16.13;11.07;;;12.30;99.90;;;;;;4991467;28;20038;-90
2022/04/23 01:51:48;;;;;;;15.00;9.82;;;12.30;99.90;;;;;;4975222;28;20042;-89
2022/04/23 01:54:14;;;;;;;14.55;10.80;;;12.20;99.90;;;;;;4991667;28;20483;-89
2022/04/23 01:56:40;;;;;;;16.00;10.68;;;12.20;99.90;;;;;;4991757;28;20044;-89
2022/04/23 01:59:05;;;;;;;15.85;10.93;;;12.20;99.90;;;;;;4991611;28;20496;-90
2022/04/23 02:01:31;;;;;;;14.93;10.15;;;12.20;99.90;;;;;;4990968;28;20046;-89
2022/04/23 02:03:57;;;;;;;15.63;10.55;;;12.10;99.90;;;;;;4991311;28;20518;-89
2022/04/23 02:06:23;;;;;;;13.20;9.90;;;12.10;99.90;;;;;;4991292;28;20089;-89
2022/04/23 02:08:49;;;;;;;17.40;11.05;;;12.10;99.90;;;;;;4990832;28;20115;-90
2022/04/23 02:11:15;;;;;;;14.68;13.10;;;12.10;99.90;;;;;;4974704;28;20492;-89
2022/04/23 02:13:41;;;;;;;15.70;13.25;;;12.10;99.90;;;;;;4990820;28;20042;-89
2022/04/23 02:16:06;;;;;;;14.27;10.18;;;12.20;99.90;;;;;;4990955;28;20045;-89
2022/04/23 02:18:32;;;;;;;14.05;10.35;;;12.10;99.90;;;;;;4991029;28;20030;-89
2022/04/23 02:20:58;;;;;;;14.18;12.65;;;12.00;99.90;;;;;;4974411;28;20042;-89
2022/04/23 02:23:24;;;;;;;14.38;12.75;;;12.10;99.90;;;;;;4990895;28;20088;-89
2022/04/23 02:25:49;;;;;;;15.05;10.10;;;12.10;99.90;;;;;;4974924;28;20090;-89
2022/04/23 02:28:15;;;;;;;13.65;10.20;;;12.10;99.90;;;;;;4990209;28;20094;-89
2022/04/23 02:30:41;;;;;;;13.68;10.10;;;12.00;99.90;;;;;;4990634;28;20027;-89
2022/04/23 02:33:06;;;;;;;15.15;10.80;;;12.00;99.90;;;;;;4990886;28;20504;-89
2022/04/23 02:35:34;;;;;;;14.02;10.57;;;12.00;99.90;;;;;;4990989;28;20042;-90
2022/04/23 02:38:01;;;;;;;14.13;10.50;;;11.90;99.90;;;;;;4990740;28;20582;-89
2022/04/23 02:40:28;;;;;;;15.13;10.30;;;11.90;99.90;;;;;;4990656;28;20046;-89
2022/04/23 02:42:55;;;;;;;13.45;10.45;;;11.90;99.90;;;;;;4990641;28;20683;-89
2022/04/23 02:45:21;;;;;;;15.25;9.60;;;11.90;99.90;;;;;;4974444;28;20038;-89
2022/04/23 02:47:55;;;;;;;13.15;9.18;;;11.80;99.90;;;;;;4990344;28;20427;-89
2022/04/23 02:50:29;;;;;;;13.27;11.50;;;11.80;99.90;;;;;;4990605;28;20085;-89
2022/04/23 02:52:57;;;;;;;13.05;8.80;;;11.80;99.90;;;;;;4990382;28;20054;-89
2022/04/23 02:55:24;;;;;;;13.88;9.55;;;11.80;99.90;;;;;;4990952;28;20046;-89
2022/04/23 02:57:50;;;;;;;14.40;9.98;;;11.80;99.90;;;;;;4990368;28;20038;-89
2022/04/23 03:00:16;;;;;;;12.07;8.85;;;11.70;99.90;;;;;;4990677;28;20048;-89
2022/04/23 03:02:42;;;;;;;13.38;9.25;;;11.70;99.90;;;;;;4990688;28;20038;-89
2022/04/23 03:05:11;;;;;;;14.38;10.02;;;11.70;99.90;;;;;;4990618;28;20038;-89
2022/04/23 03:07:37;;;;;;;12.40;8.93;;;11.70;99.90;;;;;;4974321;28;20468;-89
2022/04/23 03:10:04;;;;;;;12.82;9.57;;;11.60;99.90;;;;;;4990437;28;20088;-89
2022/04/23 03:12:30;;;;;;;12.68;8.60;;;11.60;99.90;;;;;;4991676;28;20042;-91
2022/04/23 03:14:56;;;;;;;12.77;9.27;;;11.60;99.90;;;;;;4990645;28;20241;-89
2022/04/23 03:17:22;;;;;;;16.27;9.65;;;11.60;99.90;;;;;;4990551;28;20049;-88
2022/04/23 03:19:48;;;;;;;13.35;8.82;;;11.50;99.90;;;;;;4990503;28;20504;-89
2022/04/23 03:22:16;;;;;;;12.88;8.65;;;11.50;99.90;;;;;;4992527;28;20046;-90
2022/04/23 03:24:42;;;;;;;13.43;8.55;;;11.40;99.90;;;;;;4994308;28;20065;-90
2022/04/23 03:27:08;;;;;;;12.32;8.27;;;11.50;99.90;;;;;;4993217;28;20412;-89
2022/04/23 03:29:33;;;;;;;12.77;8.60;;;11.40;99.90;;;;;;4994162;28;20043;-90
2022/04/23 03:32:00;;;;;;;13.73;9.55;;;11.40;99.90;;;;;;4993683;28;20165;-89
2022/04/23 03:34:26;;;;;;;12.90;8.80;;;11.40;99.90;;;;;;4993739;28;20045;-90
2022/04/23 03:36:52;;;;;;;11.95;8.25;;;11.40;99.90;;;;;;4994015;28;20458;-90
2022/04/23 03:39:18;;;;;;;13.07;9.07;;;11.30;99.90;;;;;;4977536;28;20053;-89
2022/04/23 03:41:44;;;;;;;13.38;8.73;;;11.30;99.90;;;;;;4993404;28;20043;-90
2022/04/23 03:44:09;;;;;;;15.80;8.70;;;11.30;99.90;;;;;;4993971;28;20046;-90
2022/04/23 03:46:35;;;;;;;13.20;8.90;;;11.30;99.90;;;;;;4993694;28;20050;-90
2022/04/23 03:49:01;;;;;;;13.05;8.70;;;11.20;99.90;;;;;;4993841;28;20045;-89
2022/04/23 03:51:26;;;;;;;12.27;8.27;;;11.20;99.90;;;;;;4993566;28;20069;-89
2022/04/23 03:53:52;;;;;;;13.52;9.02;;;11.20;99.90;;;;;;4993422;28;20378;-90
2022/04/23 03:56:18;;;;;;;13.85;8.90;;;11.20;99.90;;;;;;4977321;28;20049;-89
2022/04/23 03:58:44;;;;;;;13.52;9.88;;;11.20;99.90;;;;;;4993509;28;20054;-89
2022/04/23 04:01:10;;;;;;;15.13;8.25;;;11.20;99.90;;;;;;4993331;28;20420;-89
2022/04/23 04:03:35;;;;;;;12.05;7.93;;;11.20;99.90;;;;;;4975795;28;20466;-89
2022/04/23 04:06:01;;;;;;;13.30;8.38;;;11.20;99.90;;;;;;4993394;28;20046;-89
2022/04/23 04:08:27;;;;;;;12.85;8.30;;;11.10;99.90;;;;;;4977222;28;20089;-89
2022/04/23 04:10:53;;;;;;;11.52;8.05;;;11.10;99.90;;;;;;4976754;28;20492;-89
2022/04/23 04:13:18;;;;;;;11.07;7.65;;;11.10;99.90;;;;;;4993513;28;20125;-89
2022/04/23 04:15:45;;;;;;;13.23;7.78;;;11.10;99.90;;;;;;4993580;28;20041;-89
2022/04/23 04:18:11;;;;;;;11.95;7.80;;;11.10;99.90;;;;;;4993261;28;20049;-89
2022/04/23 04:20:39;;;;;;;11.73;7.65;;;11.00;99.90;;;;;;4993159;28;20042;-89
2022/04/23 04:23:08;;;;;;;12.80;7.57;;;11.00;99.90;;;;;;4976640;28;20042;-90
2022/04/23 04:25:34;;;;;;;12.02;7.97;;;11.00;99.90;;;;;;4977202;28;20060;-90
2022/04/23 04:28:01;;;;;;;13.00;7.80;;;11.00;99.90;;;;;;4976201;28;20125;-89
2022/04/23 04:30:27;;;;;;;11.30;7.40;;;11.00;99.90;;;;;;4992740;28;20049;-89
2022/04/23 04:32:52;;;;;;;14.23;7.30;;;11.00;99.90;;;;;;4991942;28;20125;-88
2022/04/23 04:35:18;;;;;;;10.38;7.10;;;11.00;99.90;;;;;;4976094;28;20038;-89
2022/04/23 04:37:44;;;;;;;11.57;6.82;;;11.00;99.90;;;;;;4992661;28;20100;-89
2022/04/23 04:40:11;;;;;;;11.35;7.18;;;11.00;99.90;;;;;;4991273;28;20053;-89
2022/04/23 04:42:36;;;;;;;10.63;7.28;;;11.00;99.90;;;;;;4992538;28;20125;-90
2022/04/23 04:45:03;;;;;;;10.68;6.97;;;10.90;99.90;;;;;;4976658;28;20125;-89
2022/04/23 04:47:28;;;;;;;12.52;6.93;;;10.90;99.90;;;;;;4992390;28;20088;-89
2022/04/23 04:49:55;;;;;;;10.52;6.95;;;10.90;99.90;;;;;;4992430;28;20038;-89
2022/04/23 04:52:20;;;;;;;11.65;6.75;;;10.90;99.90;;;;;;4976028;28;20042;-89
2022/04/23 04:54:46;;;;;;;11.45;7.05;;;10.90;99.90;;;;;;4976171;28;20537;-89
2022/04/23 04:57:11;;;;;;;10.57;7.05;;;10.90;99.90;;;;;;4992324;28;20049;-89
2022/04/23 04:59:37;;;;;;;10.75;6.82;;;10.90;99.90;;;;;;4976173;28;20129;-89
2022/04/23 05:02:03;;;;;;;10.25;6.80;;;10.90;99.90;;;;;;4975889;28;20080;-89
2022/04/23 05:04:29;;;;;;;10.70;6.85;;;10.90;99.90;;;;;;4992529;28;20160;-89
2022/04/23 05:06:55;;;;;;;10.23;7.10;;;10.90;99.90;;;;;;4975833;28;20577;-89
2022/04/23 05:09:21;;;;;;;10.02;6.45;;;10.90;99.90;;;;;;4975981;28;20043;-89
2022/04/23 05:11:47;;;;;;;10.68;6.25;;;10.90;99.90;;;;;;4974526;28;20059;-89
2022/04/23 05:14:13;;;;;;;12.43;7.25;;;10.90;99.90;;;;;;4992318;28;20042;-89
2022/04/23 05:16:38;;;;;;;10.18;6.60;;;10.90;99.90;;;;;;4991852;28;20046;-89
2022/04/23 05:19:04;;;;;;;9.75;6.47;;;10.90;99.90;;;;;;4976100;28;20049;-89
2022/04/23 05:21:29;;;;;;;10.48;6.53;;;10.90;99.90;;;;;;4990359;28;20042;-89
2022/04/23 05:23:55;;;;;;;10.48;6.78;;;11.00;99.90;;;;;;4991980;28;20096;-89
2022/04/23 05:26:20;;;;;;;10.82;7.00;;;11.00;99.90;;;;;;4991073;28;20137;-89
2022/04/23 05:28:46;;;;;;;10.57;6.13;;;11.00;99.90;;;;;;4991829;28;20125;-89
2022/04/23 05:31:11;;;;;;;9.98;6.13;;;11.00;99.90;;;;;;4991368;28;20042;-89
2022/04/23 05:33:38;;;;;;;10.02;6.63;;;11.00;99.90;;;;;;4991645;28;20042;-89
2022/04/23 05:36:06;;;;;;;9.48;5.97;;;11.00;99.90;;;;;;4991512;28;20142;-89
2022/04/23 05:38:32;;;;;;;12.73;6.45;;;11.10;99.90;;;;;;4975841;28;20624;-89
2022/04/23 05:40:57;;;;;;;10.80;6.72;;;11.10;99.90;;;;;;4991065;28;20038;-89
2022/04/23 05:43:23;;;;;;;10.63;6.47;;;11.10;99.90;;;;;;4992397;28;20039;-88
2022/04/23 05:45:50;;;;;;;14.43;7.18;;;11.10;99.90;;;;;;4991171;28;20034;-88
2022/04/23 05:48:16;;;;;;;10.90;7.10;;;11.10;99.90;;;;;;4991551;28;20054;-89
2022/04/23 05:50:42;;;;;;;10.27;6.68;;;11.20;99.90;;;;;;4990722;28;20049;-89
2022/04/23 05:53:07;;;;;;;11.88;7.22;;;11.20;99.90;;;;;;4991379;28;20419;-89
2022/04/23 05:55:34;;;;;;;10.57;7.00;;;11.20;99.90;;;;;;4975233;28;20038;-89
2022/04/23 05:58:00;;;;;;;11.13;6.57;;;11.20;99.90;;;;;;4991588;28;20046;-89
2022/04/23 06:00:25;;;;;;;10.23;6.72;;;11.20;99.90;;;;;;4974908;28;20097;-89
2022/04/23 06:02:51;;;;;;;11.60;7.53;;;11.20;99.90;;;;;;4991215;28;20042;-89
2022/04/23 06:05:16;;;;;;;22.55;7.65;;;11.20;99.90;;;;;;4990951;28;20133;-89
2022/04/23 06:07:42;;;;;;;10.52;7.03;;;11.30;99.90;;;;;;4973848;28;20042;-89
2022/04/23 06:10:08;;;;;;;11.88;7.93;;;11.30;99.90;;;;;;4991155;28;20125;-89
2022/04/23 06:12:35;;;;;;;12.98;7.88;;;11.40;99.90;;;;;;4991073;28;20415;-89
2022/04/23 06:15:00;;;;;;;12.30;7.65;;;11.40;99.90;;;;;;4990838;28;20089;-89
2022/04/23 06:17:27;;;;;;;11.15;7.55;;;11.40;99.80;;;;;;4991240;28;20038;-89
2022/04/23 06:19:55;;;;;;;11.63;8.05;;;11.50;99.70;;;;;;4990824;28;20069;-89
2022/04/23 06:22:22;;;;;;;11.98;7.90;;;11.50;99.60;;;;;;4990783;28;20042;-89
2022/04/23 06:24:48;;;;;;;11.50;7.65;;;11.60;99.50;;;;;;4990849;28;20053;-89
2022/04/23 06:27:13;;;;;;;13.25;7.88;;;11.60;99.40;;;;;;4989881;28;20042;-89
2022/04/23 06:29:40;;;;;;;11.57;7.95;;;11.70;99.30;;;;;;4990872;28;20070;-90
2022/04/23 06:32:06;;;;;;;11.75;8.00;;;11.70;99.10;;;;;;4990449;28;20038;-89
2022/04/23 06:34:34;;;;;;;13.88;8.63;;;11.70;98.90;;;;;;4990567;28;20046;-89
2022/04/23 06:36:59;;;;;;;11.82;7.88;;;11.80;98.90;;;;;;4990989;28;20050;-89
2022/04/23 06:39:25;;;;;;;11.85;8.43;;;11.80;98.80;;;;;;4999103;28;20030;-88
2022/04/23 06:41:50;;;;;;;12.10;8.73;;;11.90;98.60;;;;;;5001046;28;20045;-88
2022/04/23 06:44:16;;;;;;;13.30;9.50;;;12.00;98.70;;;;;;4982592;28;20038;-89
2022/04/23 06:46:41;;;;;;;11.75;8.23;;;12.00;98.50;;;;;;5000689;28;20042;-88
2022/04/23 06:49:07;;;;;;;11.35;8.30;;;12.10;98.20;;;;;;5007397;28;20026;-88
2022/04/23 06:51:33;;;;;;;13.00;8.68;;;12.10;98.00;;;;;;5001420;28;20504;-89
2022/04/23 06:53:59;;;;;;;12.55;8.82;;;12.20;97.80;;;;;;4974817;28;20121;-88
2022/04/23 06:56:26;;;;;;;13.63;8.35;;;12.20;97.70;;;;;;4993842;28;20173;-89
2022/04/23 06:58:52;;;;;;;13.02;9.52;;;12.30;97.70;;;;;;4977394;28;20495;-89
2022/04/23 07:01:17;;;;;;;12.77;9.23;;;12.30;97.10;;;;;;4991393;28;20100;-89
2022/04/23 07:03:43;;;;;;;13.57;9.23;;;12.40;97.10;;;;;;4992301;28;20042;-88
2022/04/23 07:06:08;;;;;;;13.02;8.98;;;12.40;96.90;;;;;;4975933;28;20502;-88
2022/04/23 07:08:34;;;;;;;13.63;9.63;;;12.40;96.90;;;;;;4991715;28;20511;-89
2022/04/23 07:10:59;;;;;;;12.77;8.98;;;12.50;96.70;;;;;;4991423;28;20038;-89
2022/04/23 07:13:28;;;;;;;16.35;10.00;;;12.60;96.50;;;;;;4991596;28;20057;-89
2022/04/23 07:15:54;;;;;;;11.95;9.15;;;12.60;96.20;;;;;;4991467;28;20042;-89
2022/04/23 07:18:19;;;;;;;13.95;10.68;;;12.70;96.10;;;;;;4991434;28;20104;-89
2022/04/23 07:20:45;;;;;;;20.65;10.52;;;12.80;96.10;;;;;;4993454;28;20080;-89
2022/04/23 07:25:54;;;;;;;13.40;9.80;;;12.90;95.70;;;;;;4994188;28;20047;-89
2022/04/23 07:28:20;;;;;;;14.82;10.20;;;13.00;95.40;;;;;;4993255;28;20042;-89
2022/04/23 07:30:47;;;;;;;14.20;11.00;;;13.10;94.90;;;;;;4993452;28;20046;-89
2022/04/23 07:37:28;;;;;;;13.82;9.25;;;13.20;94.80;;;;;;4993977;28;20042;-89
2022/04/23 07:38:42;;;;;;;14.48;10.27;;;13.30;94.30;;;;;;4993870;28;20132;-89
2022/04/23 07:41:08;;;;;;;13.07;10.05;;;13.40;93.80;;;;;;4977360;28;20461;-88
2022/04/23 07:43:34;;;;;;;12.88;9.55;;;13.50;93.40;;;;;;4977539;28;20172;-88
2022/04/23 07:45:59;;;;;;;14.88;11.10;;;13.60;93.50;;;;;;4993886;28;20121;-88
2022/04/23 07:48:25;;;;;;;16.60;10.27;;;13.70;93.60;;;;;;4993777;28;20050;-88
2022/04/23 07:50:50;;;;;;;17.00;9.45;;;13.80;92.80;;;;;;4993857;28;20080;-88
2022/04/23 07:53:16;;;;;;;13.40;10.27;;;13.90;92.10;;;;;;4977861;28;20042;-88
2022/04/23 07:55:41;;;;;;;14.23;9.05;;;14.00;91.80;;;;;;4993634;28;20042;-88
2022/04/23 07:58:09;;;;;;;16.15;10.25;;;14.10;91.00;;;;;;4993649;28;20042;-88
2022/04/23 08:00:36;;;;;;;14.68;9.85;;;14.20;88.80;;;;;;4993352;28;20093;-88
2022/04/23 08:03:05;;;;;;;13.23;9.13;;;14.30;87.70;;;;;;4977161;28;20096;-89
2022/04/23 08:05:32;;;;;;;13.75;9.00;;;14.30;88.20;;;;;;4977219;28;20097;-89
2022/04/23 08:07:58;;;;;;;14.65;9.77;;;14.40;86.10;;;;;;4992634;28;20046;-89
2022/04/23 08:10:23;;;;;;;12.82;8.85;;;14.50;84.70;;;;;;4992872;28;20520;-88
2022/04/23 08:12:49;;;;;;;13.85;9.23;;;14.60;82.80;;;;;;4976857;28;20096;-89
2022/04/23 08:15:15;;;;;;;20.40;9.48;;;14.60;82.40;;;;;;4977261;28;20034;-88
2022/04/23 08:17:41;;;;;;;15.15;8.95;;;14.70;82.20;;;;;;4993244;28;20104;-89
2022/04/23 08:20:07;;;;;;;12.23;8.93;;;14.90;82.30;;;;;;4993013;28;20061;-89
2022/04/23 08:22:34;;;;;;;15.10;9.65;;;15.00;80.90;;;;;;4976811;28;20047;-89
2022/04/23 08:24:59;;;;;;;14.90;8.75;;;15.00;78.70;;;;;;4993392;28;20046;-89
2022/04/23 08:27:25;;;;;;;13.15;9.35;;;15.10;77.50;;;;;;4992394;28;20049;-89
2022/04/23 08:32:35;;;;;;;13.82;8.57;;;15.20;75.20;;;;;;4992967;28;20046;-89
2022/04/23 08:35:04;;;;;;;14.10;9.20;;;15.30;74.70;;;;;;4992679;28;20038;-89
2022/04/23 08:37:29;;;;;;;14.15;8.90;;;15.40;74.40;;;;;;4992794;28;20046;-89
2022/04/23 08:39:55;;;;;;;13.82;9.20;;;15.50;73.30;;;;;;4991834;28;20053;-89
2022/04/23 08:42:21;;;;;;;13.60;9.23;;;15.50;72.00;;;;;;4992553;28;20045;-90
2022/04/23 08:44:46;;;;;;;14.20;9.50;;;15.50;70.70;;;;;;4993068;28;20050;-89
2022/04/23 08:47:12;;;;;;;12.15;8.80;;;15.60;70.80;;;;;;4992837;28;20496;-90
2022/04/23 08:49:42;;;;;;;11.70;9.02;;;15.60;70.60;;;;;;4992591;28;20042;-89
2022/04/23 08:52:29;;;;;;;15.20;9.32;;;15.70;70.40;;;;;;4992397;28;20058;-90
2022/04/23 08:54:56;;;;;;;13.90;9.55;;;15.80;69.00;;;;;;4992854;28;20042;-89
2022/04/23 08:57:22;;;;;;;12.18;8.77;;;15.70;68.80;;;;;;4992616;28;20038;-90
2022/04/23 08:59:51;;;;;;;11.57;9.13;;;15.80;68.60;;;;;;4992605;28;20415;-89
2022/04/23 09:02:17;;;;;;;13.02;8.60;;;15.90;68.40;;;;;;4992143;28;20084;-89
2022/04/23 09:04:43;;;;;;;12.02;8.70;;;16.00;68.20;;;;;;4992685;28;20137;-89
2022/04/23 09:07:29;;;;;;;13.52;9.40;;;16.00;67.70;;;;;;4992661;28;20042;-88
2022/04/23 09:09:57;;;;;;;14.20;10.05;;;16.10;67.70;;;;;;4992111;28;20034;-89
2022/04/23 09:12:25;;;;;;;13.13;8.70;;;16.30;68.70;;;;;;4978646;28;20045;-89
2022/04/23 09:23:43;;;;;;;14.02;9.57;;;16.60;65.30;;;;;;4982869;28;20117;-89
2022/04/23 09:26:16;;;;;;;13.30;9.45;;;16.60;64.30;;;;;;4967364;28;20096;-89
2022/04/23 09:28:46;;;;;;;13.70;9.20;;;16.70;65.00;;;;;;4991943;28;20042;-89
2022/04/23 09:31:12;;;;;;;12.75;8.73;;;16.80;64.20;;;;;;4990604;28;20034;-89
2022/04/23 09:33:52;;;;;;;12.93;9.60;;;16.90;64.40;;;;;;4991415;28;20042;-89
2022/04/23 09:36:19;;;;;;;13.20;9.85;;;17.00;63.80;;;;;;4991784;28;20041;-89
2022/04/23 09:39:02;;;;;;;15.52;9.27;;;17.10;63.20;;;;;;4991580;28;20077;-90
2022/04/23 09:41:35;;;;;;;14.10;9.73;;;17.20;62.00;;;;;;4991125;28;20034;-90
2022/04/23 09:44:09;;;;;;;13.05;8.80;;;17.20;61.60;;;;;;4991713;28;20038;-90
2022/04/23 09:46:46;;;;;;;13.32;9.30;;;17.30;62.20;;;;;;4975535;28;20038;-89
2022/04/23 09:49:18;;;;;;;12.02;9.52;;;17.40;61.70;;;;;;4991257;28;20039;-89
2022/04/23 09:52:08;;;;;;;15.45;10.55;;;17.50;60.70;;;;;;4991655;28;20046;-89
2022/04/23 09:54:35;;;;;;;13.52;9.82;;;17.60;61.10;;;;;;4991360;28;20046;-89
2022/04/23 09:57:01;;;;;;;13.07;9.80;;;17.70;60.30;;;;;;4991482;28;20042;-89
2022/04/23 09:59:27;;;;;;;14.25;9.07;;;17.80;59.90;;;;;;4991379;28;20264;-89
2022/04/23 10:01:57;;;;;;;11.82;8.98;;;17.80;58.80;;;;;;4990938;28;20463;-89
2022/04/23 10:04:24;;;;;;;12.32;9.02;;;17.90;59.10;;;;;;4990749;28;20073;-89
2022/04/23 10:06:51;;;;;;;12.07;9.18;;;18.00;59.50;;;;;;4991001;28;20042;-90
2022/04/23 10:09:21;;;;;;;12.40;8.77;;;18.00;58.80;;;;;;4991364;28;20126;-90
2022/04/23 10:11:49;;;;;;;12.93;9.48;;;18.10;58.10;;;;;;4990741;28;20034;-90
2022/04/23 10:14:22;;;;;;;16.00;9.65;;;18.20;58.20;;;;;;4991518;28;20492;-90
2022/04/23 10:16:48;;;;;;;11.32;9.07;;;18.30;58.10;;;;;;4989602;28;20058;-90
2022/04/23 10:19:15;;;;;;;10.98;9.10;;;18.40;57.30;;;;;;4991038;28;20034;-90
2022/04/23 10:21:59;;;;;;;11.57;8.60;;;18.50;57.00;;;;;;4992139;28;20046;-90
2022/04/23 10:24:40;;;;;;;13.68;10.52;;;18.60;57.80;;;;;;4991058;28;20121;-90
2022/04/23 10:27:10;;;;;;;13.68;9.20;;;18.70;56.40;;;;;;4990617;28;20042;-90
2022/04/23 10:29:36;;;;;;;11.00;8.38;;;18.70;57.00;;;;;;4990917;28;20038;-90
2022/04/23 10:32:11;;;;;;;11.88;9.18;;;18.80;56.60;;;;;;4990259;28;20038;-90
2022/04/23 10:34:38;;;;;;;12.15;9.65;;;18.90;55.40;;;;;;4990916;28;20104;-90
2022/04/23 10:37:24;;;;;;;11.02;8.73;;;19.00;56.80;;;;;;4990741;28;20061;-90
2022/04/23 10:39:53;;;;;;;13.18;9.63;;;19.10;55.40;;;;;;4990681;28;20525;-90
2022/04/23 10:42:22;;;;;;;11.57;8.63;;;19.10;53.70;;;;;;4990759;28;20430;-89
2022/04/23 10:44:49;;;;;;;12.70;9.02;;;19.20;53.80;;;;;;4992278;28;20121;-90
2022/04/23 10:47:34;;;;;;;14.80;9.40;;;19.20;53.60;;;;;;4991205;28;20522;-90
2022/04/23 10:52:44;;;;;;;15.55;9.25;;;19.20;53.30;;;;;;4990593;28;20054;-90
2022/04/23 10:55:11;;;;;;;11.02;8.50;;;19.20;53.30;;;;;;4990660;28;20389;-90
2022/04/23 10:57:39;;;;;;;11.63;8.30;;;19.30;52.90;;;;;;4990891;28;20132;-90
2022/04/23 11:00:12;;;;;;;12.27;7.75;;;19.40;52.00;;;;;;4990294;28;20045;-90
2022/04/23 11:02:39;;;;;;;13.02;8.95;;;19.50;51.80;;;;;;4990633;28;20053;-90
2022/04/23 11:13:59;;;;;;;11.70;8.47;;;19.80;50.70;;;;;;4990473;28;20051;-90
2022/04/23 11:16:29;;;;;;;10.93;8.23;;;19.90;50.80;;;;;;4990445;28;20042;-90
2022/04/23 11:18:58;;;;;;;16.90;8.57;;;20.10;49.90;;;;;;4990639;28;20038;-91
2022/04/23 11:21:30;;;;;;;13.27;8.85;;;20.10;49.10;;;;;;4990119;28;20419;-90
2022/04/23 11:23:58;;;;;;;10.73;7.65;;;20.10;48.60;;;;;;4990245;28;20042;-90
2022/04/23 11:26:46;;;;;;;13.57;8.85;;;20.20;48.80;;;;;;4989982;28;20046;-90
2022/04/23 11:29:14;;;;;;;11.65;8.68;;;20.30;49.60;;;;;;4990473;28;20046;-90
2022/04/23 11:31:40;;;;;;;14.63;7.70;;;20.40;48.50;;;;;;4990124;28;20042;-90
2022/04/23 11:34:06;;;;;;;13.13;8.48;;;20.50;49.90;;;;;;4990482;28;20041;-90
2022/04/23 11:36:36;;;;;;;13.23;8.23;;;20.60;48.80;;;;;;4990037;28;20057;-90
2022/04/23 11:39:09;;;;;;;12.13;8.23;;;20.70;48.40;;;;;;4990271;28;20047;-90
2022/04/23 11:41:42;;;;;;;11.35;7.55;;;20.80;47.70;;;;;;4989630;28;20369;-91
2022/04/23 11:44:45;;;;;;;12.23;7.20;;;20.90;47.60;;;;;;4994236;28;20080;-90
2022/04/23 11:47:07;;;;;;;12.88;8.07;;;21.00;47.70;;;;;;4993580;28;20496;-91
2022/04/23 11:49:33;;;;;;;10.25;7.35;;;21.10;47.10;;;;;;4993700;28;20037;-90
2022/04/23 11:52:06;;;;;;;11.82;6.47;;;21.20;46.90;;;;;;4993774;28;20038;-91
2022/04/23 11:54:37;;;;;;;9.88;6.70;;;21.30;46.10;;;;;;4993650;28;20038;-91
2022/04/23 11:57:05;;;;;;;11.43;6.35;;;21.30;45.20;;;;;;4993708;28;20038;-91
2022/04/23 11:59:41;;;;;;;10.65;6.22;;;21.40;45.60;;;;;;4993785;28;20125;-91
2022/04/23 12:02:24;;;;;;;11.52;5.68;;;21.50;45.10;;;;;;4993455;28;20096;-90
2022/04/23 12:04:52;;;;;;;10.90;6.95;;;21.50;44.40;;;;;;5010019;28;20450;-91
2022/04/23 12:07:19;;;;;;;9.52;5.55;;;21.50;44.40;;;;;;4993505;28;20273;-91
2022/04/23 12:09:50;;;;;;;10.80;5.50;;;21.60;44.90;;;;;;4993252;28;20121;-91
2022/04/23 12:12:25;;;;;;;10.07;5.75;;;21.80;44.30;;;;;;4993703;28;20043;-91
2022/04/23 12:15:04;;;;;;;9.82;5.78;;;21.90;43.60;;;;;;4993367;28;20078;-91
2022/04/23 12:17:30;;;;;;;10.25;6.20;;;21.90;42.80;;;;;;4993473;28;20046;-91
2022/04/23 12:20:08;;;;;;;10.23;5.75;;;21.80;42.50;;;;;;4992817;28;20078;-91
2022/04/23 12:22:34;;;;;;;9.85;5.63;;;21.80;42.30;;;;;;4993259;28;20575;-91
2022/04/23 12:25:18;;;;;;;10.07;5.40;;;21.70;41.70;;;;;;4992928;28;20042;-91
2022/04/23 12:27:59;;;;;;;9.85;4.82;;;21.80;41.60;;;;;;4992348;28;20113;-91
2022/04/23 12:41:56;;;;;;;10.00;5.70;;;22.30;40.70;;;;;;4973388;28;20409;-91
2022/04/23 12:44:24;;;;;;;8.82;4.90;;;22.40;41.70;;;;;;4989725;28;20087;-91
2022/04/23 12:47:06;;;;;;;9.18;5.43;;;22.60;42.10;;;;;;4957463;28;20381;-91
2022/04/23 12:50:05;;;;;;;8.70;5.22;;;22.70;40.50;;;;;;4989116;28;20078;-91
2022/04/23 12:52:37;;;;;;;9.38;5.13;;;22.70;39.70;;;;;;4957423;28;20038;-92
2022/04/23 12:55:21;;;;;;;13.73;5.50;;;22.80;38.80;;;;;;4973062;28;20496;-92
2022/04/23 12:57:48;;;;;;;10.55;4.90;;;22.80;39.00;;;;;;4957191;28;20042;-91
2022/04/23 13:00:17;;;;;;;10.27;5.70;;;22.90;39.30;;;;;;4972934;28;20081;-91
2022/04/23 13:02:47;;;;;;;9.20;4.97;;;23.10;39.00;;;;;;4972966;28;20093;-91
2022/04/23 13:05:13;;;;;;;10.40;5.28;;;23.10;38.60;;;;;;4973503;28;20049;-91
2022/04/23 13:10:23;;;;;;;8.55;5.00;;;23.20;38.10;;;;;;4972885;28;20058;-91
2022/04/23 13:12:49;;;;;;;11.10;5.15;;;23.30;37.60;;;;;;4956631;28;20496;-91
2022/04/23 13:15:18;;;;;;;8.50;4.95;;;23.30;38.00;;;;;;4973006;28;20078;-91
2022/04/23 13:17:46;;;;;;;12.05;5.10;;;23.30;37.70;;;;;;4972844;28;20500;-91
2022/04/23 13:20:14;;;;;;;7.32;4.50;;;23.40;37.50;;;;;;4972338;28;20054;-91
2022/04/23 13:22:43;;;;;;;10.05;4.70;;;23.70;37.70;;;;;;4988894;28;20082;-91